Espace membre
ImprimablePdf
Challenges > Delhalle - Butgenbach, 06/05/2006, BEL - Rund um den See
Liste des rapports > Delhalle - 21km - Classement scratch
Recherche: Page: 1 2 [3]
447 Entrées
 
Les réclamations ne sont plus acceptées, les résultats sont considérés comme définitifs.
Catégorie
PosNrNomAgeIOCLigueEquipeRéelTempsTkmMoy.RangNomPtsLocalité
401.559MORADIELLOS Fernando51BELIXELJOGGPLUS2:12:472:13:066:21 9.4789VE2160UCCLE
402.399ROSSION Yvon58BEL2:12:542:13:096:21 9.4690VE2159LIEGE
403.2333LEPAGE Bernard37BEL2:13:372:14:006:23 9.40107SEN152WAIMES
404.799ODEURS Jean-Claude50BELSERSERUNNER2:13:452:14:006:23 9.4091VE2150OTHEE
405.2293FFATZAUN DanielleBELLACE2:14:052:14:286:25 9.377XXX146
406.300FADAM Francoise45BELHRC2:14:382:15:036:26 9.3317AI1141VIRTON
407.2205DE SCHEEMAECKER Rudy51BEL2:14:532:15:156:27 9.3292VE2139GENT
408.1342FDEWILDE Magali42BELDACMJOGGANS2:15:082:15:226:27 9.3118AI1136MOLENBEEK-ST-JEAN
409.1600FLORKIN Marc53BELCOLONSTE2:15:282:15:536:29 9.2793VE2132SERAING
410.1154OFFERMANN Engelbert70BELSCBUTG2:15:482:15:566:29 9.277VE4129ELSENBORN
411.1921CE48126 BEL2:16:112:16:366:31 9.228XXX125
412.37HANSENNE Marc60BELSERSERUNNER2:17:252:17:576:35 9.1320VE3114NEUPRE
413.491SIZAIRE Jacques51BELLFDM2:17:332:17:576:35 9.1394VE2112MEIX-DVT-VIRTON
414.206MERCENIER Maurice47BELAMAY2:17:312:17:586:35 9.13122VE1112AMAY
415.249PIRSON Patrice49BELJCCS2:17:542:18:256:36 9.10123VE1108SART-CUSTINNE
416.2267FNEUBERG Marie-Paule45BEL2:18:032:18:376:37 9.0919AI1106HEINSCH
417.2353SCHLECK Stephane25BEL2:19:232:19:466:40 9.02108SEN95
418.2357MINGUET Valery31BEL2:19:522:20:186:41 8.98109SEN90
419.2298HEYNEN Julien19BEL2:20:012:20:256:42 8.977ESP88
420.2268FKNOBEL Karin47BEL2:20:302:21:046:44 8.9320AI184
421.2039NYSSEN Siegfried50BEL2:20:352:21:096:44 8.9395VE282LONTZEN
422.2245GEURTS Francis61BELLACEERTK2:21:102:21:136:44 8.9221VE377
423.1060FCALIFICE Huberte53BELLE JOUR VERVIER2:20:572:21:276:45 8.9112AI278CHARNEUX
424.1008FTILLY Georgette45BEL2:21:162:21:406:45 8.8921AI175CHIEVRES
425.183VANDER AUWERA Daniel72BEL2:22:262:22:596:49 8.818VE465BRUXELLES
426.2220LESOINNE Sylvain26BEL2:23:242:23:566:52 8.75110SEN57BOLLAND
427.2249BOVY Jean-Luc40BEL2:25:082:25:396:57 8.65124VE143
428.704SUY Herman64BELBEAC2:26:042:26:306:59 8.6022VE335BERCHEM
429.2304CURTZ Robert35BEL2:26:122:26:447:00 8.59111SEN33THIMISTER-CLERMONT
430.2320FSCHELFHOUT Annie60BELJOGGANS2:28:462:29:197:07 8.442AI313MOLENBEEK-SAINT-JEAN
431.1121DERWAEL Pierre73BELSERSERUNNER2:28:502:29:217:07 8.449VE412GRACE-HOLLOGNE
432.2056SCHMITZ Wilhelm73BELUSV2:33:092:33:457:20 8.2010VE48
433.1477FDECELLIER Dominique49BELACLO2:35:222:35:517:26 8.0822AI17COUILLET
434.2244FDEELEN Reinhilde49BELAC BREAK2:38:272:38:377:34 7.9423AI16BRASSCHAAT
435.1081VAN GOETHEM Paul59BEL2:39:402:40:167:38 7.8696VE26BERCHEM
436.2292VOSSEN Daniel47BEL2:42:202:42:597:46 7.73125VE15LIÈGE
437.169BRUN Felice52BEL2:53:222:53:418:17 7.2597VE24MALONNE
438.1200FROBBEN Angele65BEL2:56:562:57:178:27 7.113AI33STEVOORT-HASSELT
439.2252DION Edouard23BELKURISTO3:31:353:31:3510:05 5.96112SEN3
440.920CLAMOT Daniel50BELKURISTO3:31:373:31:3710:05 5.9598VE22LIGNY
441.667FGOFFART Brigitte52BELKURISTO3:31:373:31:3710:05 5.9513AI21BRUXELLES
442.1451MARRACCINI Lorenzo69BEL3:44:023:44:0210:41 5.6223VE31SINT-STEVENS-WOLUWE
DNF383FCOSTA Lucia45BELFLEUAI1WANGENIES
DNF2347DEHOTTAY Andre47BELVE1
DNF2062DERWAEL Alain37BELCAPNRBSENSERAING
DNF1368LEGRAIN Fabrice33BELSENECAUSSINNES
DNF2360MONVILLE Jean-Marc40BELVE1SPA
DNF: abandon; DSQ: disqualifié; Vitesse en km/h